sensor_id;sensor_type;location;lat;lon;timestamp;temperature;humidity
66726;HTU21D;53638;51.062;5.804;2022-12-07T00:01:26;5.84;118.99
66726;HTU21D;53638;51.062;5.804;2022-12-07T00:03:53;5.81;118.99
66726;HTU21D;53638;51.062;5.804;2022-12-07T00:06:23;5.79;118.99
66726;HTU21D;53638;51.062;5.804;2022-12-07T00:08:49;5.79;118.99
66726;HTU21D;53638;51.062;5.804;2022-12-07T00:11:19;5.72;118.99
66726;HTU21D;53638;51.062;5.804;2022-12-07T00:13:45;5.70;118.99
66726;HTU21D;53638;51.062;5.804;2022-12-07T00:16:15;5.66;118.99
66726;HTU21D;53638;51.062;5.804;2022-12-07T00:18:42;5.67;118.99
66726;HTU21D;53638;51.062;5.804;2022-12-07T00:21:12;5.63;118.99
66726;HTU21D;53638;51.062;5.804;2022-12-07T00:23:39;5.65;118.99
66726;HTU21D;53638;51.062;5.804;2022-12-07T00:26:08;5.66;118.99
66726;HTU21D;53638;51.062;5.804;2022-12-07T00:28:34;5.63;118.99
66726;HTU21D;53638;51.062;5.804;2022-12-07T00:31:06;5.61;118.99
66726;HTU21D;53638;51.062;5.804;2022-12-07T00:33:33;5.59;118.99
66726;HTU21D;53638;51.062;5.804;2022-12-07T00:36:00;5.59;118.99
66726;HTU21D;53638;51.062;5.804;2022-12-07T00:38:30;5.59;118.99
66726;HTU21D;53638;51.062;5.804;2022-12-07T00:41:01;5.54;118.99
66726;HTU21D;53638;51.062;5.804;2022-12-07T00:43:28;5.57;118.99
66726;HTU21D;53638;51.062;5.804;2022-12-07T00:45:55;5.59;118.99
66726;HTU21D;53638;51.062;5.804;2022-12-07T00:48:22;5.59;118.99
66726;HTU21D;53638;51.062;5.804;2022-12-07T00:50:49;5.59;118.99
66726;HTU21D;53638;51.062;5.804;2022-12-07T00:53:15;5.53;118.99
66726;HTU21D;53638;51.062;5.804;2022-12-07T00:55:41;5.61;118.99
66726;HTU21D;53638;51.062;5.804;2022-12-07T00:58:08;5.62;118.99
66726;HTU21D;53638;51.062;5.804;2022-12-07T01:00:36;5.63;118.99
66726;HTU21D;53638;51.062;5.804;2022-12-07T01:03:03;5.65;118.99
66726;HTU21D;53638;51.062;5.804;2022-12-07T01:05:29;5.68;118.99
66726;HTU21D;53638;51.062;5.804;2022-12-07T01:07:55;5.66;118.99
66726;HTU21D;53638;51.062;5.804;2022-12-07T01:10:20;5.62;118.99
66726;HTU21D;53638;51.062;5.804;2022-12-07T01:12:46;5.57;118.99
66726;HTU21D;53638;51.062;5.804;2022-12-07T01:15:12;5.55;118.99
66726;HTU21D;53638;51.062;5.804;2022-12-07T01:17:38;5.54;118.99
66726;HTU21D;53638;51.062;5.804;2022-12-07T01:20:05;5.47;118.99
66726;HTU21D;53638;51.062;5.804;2022-12-07T01:22:31;5.49;118.99
66726;HTU21D;53638;51.062;5.804;2022-12-07T01:24:57;5.46;118.99
66726;HTU21D;53638;51.062;5.804;2022-12-07T01:27:22;5.47;118.99
66726;HTU21D;53638;51.062;5.804;2022-12-07T01:29:48;5.53;118.99
66726;HTU21D;53638;51.062;5.804;2022-12-07T01:32:14;5.54;118.99
66726;HTU21D;53638;51.062;5.804;2022-12-07T01:34:40;5.56;118.99
66726;HTU21D;53638;51.062;5.804;2022-12-07T01:37:06;5.56;118.99
66726;HTU21D;53638;51.062;5.804;2022-12-07T01:39:32;5.53;118.99
66726;HTU21D;53638;51.062;5.804;2022-12-07T01:41:58;5.53;118.99
66726;HTU21D;53638;51.062;5.804;2022-12-07T01:44:28;5.59;118.99
66726;HTU21D;53638;51.062;5.804;2022-12-07T01:46:58;5.57;118.99
66726;HTU21D;53638;51.062;5.804;2022-12-07T01:49:37;5.56;118.99
66726;HTU21D;53638;51.062;5.804;2022-12-07T01:52:13;5.61;118.99
66726;HTU21D;53638;51.062;5.804;2022-12-07T01:54:42;5.54;118.99
66726;HTU21D;53638;51.062;5.804;2022-12-07T01:57:09;5.59;118.99
66726;HTU21D;53638;51.062;5.804;2022-12-07T01:59:35;5.52;118.99
66726;HTU21D;53638;51.062;5.804;2022-12-07T02:02:07;5.55;118.99
66726;HTU21D;53638;51.062;5.804;2022-12-07T02:04:36;5.56;118.99
66726;HTU21D;53638;51.062;5.804;2022-12-07T02:07:03;5.60;118.99
66726;HTU21D;53638;51.062;5.804;2022-12-07T02:09:30;5.59;118.99
66726;HTU21D;53638;51.062;5.804;2022-12-07T02:11:57;5.57;118.99
66726;HTU21D;53638;51.062;5.804;2022-12-07T02:14:23;5.57;118.99
66726;HTU21D;53638;51.062;5.804;2022-12-07T02:17:14;5.60;118.99
66726;HTU21D;53638;51.062;5.804;2022-12-07T02:20:00;5.60;118.99
66726;HTU21D;53638;51.062;5.804;2022-12-07T02:31:23;5.52;118.99
66726;HTU21D;53638;51.062;5.804;2022-12-07T02:34:01;5.54;118.99
66726;HTU21D;53638;51.062;5.804;2022-12-07T02:36:38;5.51;118.99
66726;HTU21D;53638;51.062;5.804;2022-12-07T02:39:15;5.51;118.99
66726;HTU21D;53638;51.062;5.804;2022-12-07T02:41:51;5.48;118.99
66726;HTU21D;53638;51.062;5.804;2022-12-07T02:44:23;5.50;118.99
66726;HTU21D;53638;51.062;5.804;2022-12-07T02:46:54;5.51;118.99
66726;HTU21D;53638;51.062;5.804;2022-12-07T02:49:37;5.55;118.99
66726;HTU21D;53638;51.062;5.804;2022-12-07T02:52:04;5.56;118.99
66726;HTU21D;53638;51.062;5.804;2022-12-07T02:54:30;5.54;118.99
66726;HTU21D;53638;51.062;5.804;2022-12-07T03:02:18;5.54;118.99
66726;HTU21D;53638;51.062;5.804;2022-12-07T03:10:45;5.55;118.99
66726;HTU21D;53638;51.062;5.804;2022-12-07T03:16:10;5.57;118.99
66726;HTU21D;53638;51.062;5.804;2022-12-07T03:18:48;5.57;118.99
66726;HTU21D;53638;51.062;5.804;2022-12-07T03:21:20;5.55;118.99
66726;HTU21D;53638;51.062;5.804;2022-12-07T03:23:52;5.54;118.99
66726;HTU21D;53638;51.062;5.804;2022-12-07T03:26:22;5.51;118.99
66726;HTU21D;53638;51.062;5.804;2022-12-07T03:28:55;5.54;118.99
66726;HTU21D;53638;51.062;5.804;2022-12-07T03:31:28;5.52;118.99
66726;HTU21D;53638;51.062;5.804;2022-12-07T03:34:05;5.52;118.99
66726;HTU21D;53638;51.062;5.804;2022-12-07T03:36:43;5.57;118.99
66726;HTU21D;53638;51.062;5.804;2022-12-07T03:41:57;5.60;118.99
66726;HTU21D;53638;51.062;5.804;2022-12-07T03:44:24;5.57;118.99
66726;HTU21D;53638;51.062;5.804;2022-12-07T03:47:02;5.56;118.99
66726;HTU21D;53638;51.062;5.804;2022-12-07T03:49:45;5.57;118.99
66726;HTU21D;53638;51.062;5.804;2022-12-07T03:52:27;5.57;118.99
66726;HTU21D;53638;51.062;5.804;2022-12-07T03:57:35;5.59;118.99
66726;HTU21D;53638;51.062;5.804;2022-12-07T04:00:06;5.49;118.99
66726;HTU21D;53638;51.062;5.804;2022-12-07T04:02:38;5.49;118.99
66726;HTU21D;53638;51.062;5.804;2022-12-07T04:05:05;5.47;118.99
66726;HTU21D;53638;51.062;5.804;2022-12-07T04:07:32;5.39;118.99
66726;HTU21D;53638;51.062;5.804;2022-12-07T04:09:57;5.36;118.99
66726;HTU21D;53638;51.062;5.804;2022-12-07T04:12:23;5.31;118.99
66726;HTU21D;53638;51.062;5.804;2022-12-07T04:14:49;5.27;118.99
66726;HTU21D;53638;51.062;5.804;2022-12-07T04:17:15;5.23;118.99
66726;HTU21D;53638;51.062;5.804;2022-12-07T04:19:41;5.23;118.99
66726;HTU21D;53638;51.062;5.804;2022-12-07T04:22:07;5.23;118.99
66726;HTU21D;53638;51.062;5.804;2022-12-07T04:24:34;5.23;118.99
66726;HTU21D;53638;51.062;5.804;2022-12-07T04:27:00;5.30;118.99
66726;HTU21D;53638;51.062;5.804;2022-12-07T04:29:26;5.33;118.99
66726;HTU21D;53638;51.062;5.804;2022-12-07T04:31:53;5.32;118.99
66726;HTU21D;53638;51.062;5.804;2022-12-07T04:34:19;5.35;118.99
66726;HTU21D;53638;51.062;5.804;2022-12-07T04:36:46;5.36;118.99
66726;HTU21D;53638;51.062;5.804;2022-12-07T04:39:20;5.36;118.99
66726;HTU21D;53638;51.062;5.804;2022-12-07T04:41:47;5.37;118.99
66726;HTU21D;53638;51.062;5.804;2022-12-07T04:44:14;5.36;118.99
66726;HTU21D;53638;51.062;5.804;2022-12-07T04:46:41;5.28;118.99
66726;HTU21D;53638;51.062;5.804;2022-12-07T04:49:08;5.24;118.99
66726;HTU21D;53638;51.062;5.804;2022-12-07T04:51:34;5.20;118.99
66726;HTU21D;53638;51.062;5.804;2022-12-07T04:54:00;5.20;118.99
66726;HTU21D;53638;51.062;5.804;2022-12-07T04:56:27;5.21;118.99
66726;HTU21D;53638;51.062;5.804;2022-12-07T04:58:54;5.19;118.99
66726;HTU21D;53638;51.062;5.804;2022-12-07T05:01:21;5.16;118.99
66726;HTU21D;53638;51.062;5.804;2022-12-07T05:03:47;5.19;118.99
66726;HTU21D;53638;51.062;5.804;2022-12-07T05:06:14;5.24;118.99
66726;HTU21D;53638;51.062;5.804;2022-12-07T05:08:41;5.25;118.99
66726;HTU21D;53638;51.062;5.804;2022-12-07T05:11:08;5.26;118.99
66726;HTU21D;53638;51.062;5.804;2022-12-07T05:13:36;5.31;118.99
66726;HTU21D;53638;51.062;5.804;2022-12-07T05:16:02;5.34;118.99
66726;HTU21D;53638;51.062;5.804;2022-12-07T05:18:28;5.31;118.99
66726;HTU21D;53638;51.062;5.804;2022-12-07T05:20:54;5.26;118.99
66726;HTU21D;53638;51.062;5.804;2022-12-07T05:23:20;5.28;118.99
66726;HTU21D;53638;51.062;5.804;2022-12-07T05:25:46;5.28;118.99
66726;HTU21D;53638;51.062;5.804;2022-12-07T05:28:12;5.31;118.99
66726;HTU21D;53638;51.062;5.804;2022-12-07T05:30:38;5.33;118.99
66726;HTU21D;53638;51.062;5.804;2022-12-07T05:33:04;5.36;118.99
66726;HTU21D;53638;51.062;5.804;2022-12-07T05:35:30;5.40;118.99
66726;HTU21D;53638;51.062;5.804;2022-12-07T05:37:56;5.42;118.99
66726;HTU21D;53638;51.062;5.804;2022-12-07T05:40:23;5.42;118.99
66726;HTU21D;53638;51.062;5.804;2022-12-07T05:42:49;5.46;118.99
66726;HTU21D;53638;51.062;5.804;2022-12-07T05:45:15;5.43;118.99
66726;HTU21D;53638;51.062;5.804;2022-12-07T05:47:41;5.42;118.99
66726;HTU21D;53638;51.062;5.804;2022-12-07T05:50:07;5.36;118.99
66726;HTU21D;53638;51.062;5.804;2022-12-07T05:52:33;5.33;118.99
66726;HTU21D;53638;51.062;5.804;2022-12-07T05:54:59;5.34;118.99
66726;HTU21D;53638;51.062;5.804;2022-12-07T05:57:24;5.36;118.99
66726;HTU21D;53638;51.062;5.804;2022-12-07T05:59:50;5.35;118.99
66726;HTU21D;53638;51.062;5.804;2022-12-07T06:02:16;5.36;118.99
66726;HTU21D;53638;51.062;5.804;2022-12-07T06:04:46;5.38;118.99
66726;HTU21D;53638;51.062;5.804;2022-12-07T06:07:14;5.43;118.99
66726;HTU21D;53638;51.062;5.804;2022-12-07T06:09:40;5.50;118.99
66726;HTU21D;53638;51.062;5.804;2022-12-07T06:12:10;5.47;118.99
66726;HTU21D;53638;51.062;5.804;2022-12-07T06:14:54;5.47;118.99
66726;HTU21D;53638;51.062;5.804;2022-12-07T06:17:20;5.47;118.99
66726;HTU21D;53638;51.062;5.804;2022-12-07T06:19:46;5.52;118.99
66726;HTU21D;53638;51.062;5.804;2022-12-07T06:22:12;5.45;118.99
66726;HTU21D;53638;51.062;5.804;2022-12-07T06:24:38;5.45;118.99
66726;HTU21D;53638;51.062;5.804;2022-12-07T06:27:05;5.41;118.99
66726;HTU21D;53638;51.062;5.804;2022-12-07T06:29:31;5.40;118.99
66726;HTU21D;53638;51.062;5.804;2022-12-07T06:31:57;5.42;118.99
66726;HTU21D;53638;51.062;5.804;2022-12-07T06:34:25;5.41;118.99
66726;HTU21D;53638;51.062;5.804;2022-12-07T06:36:52;5.43;118.99
66726;HTU21D;53638;51.062;5.804;2022-12-07T06:39:23;5.42;118.99
66726;HTU21D;53638;51.062;5.804;2022-12-07T06:41:50;5.40;118.99
66726;HTU21D;53638;51.062;5.804;2022-12-07T06:44:18;5.37;118.99
66726;HTU21D;53638;51.062;5.804;2022-12-07T06:46:44;5.38;118.99
66726;HTU21D;53638;51.062;5.804;2022-12-07T06:49:10;5.38;118.99
66726;HTU21D;53638;51.062;5.804;2022-12-07T06:51:36;5.39;118.99
66726;HTU21D;53638;51.062;5.804;2022-12-07T06:54:08;5.49;118.99
66726;HTU21D;53638;51.062;5.804;2022-12-07T06:56:34;5.49;118.99
66726;HTU21D;53638;51.062;5.804;2022-12-07T06:59:01;5.51;118.99
66726;HTU21D;53638;51.062;5.804;2022-12-07T07:01:26;5.51;118.99
66726;HTU21D;53638;51.062;5.804;2022-12-07T07:03:52;5.48;118.99
66726;HTU21D;53638;51.062;5.804;2022-12-07T07:06:18;5.41;118.99
66726;HTU21D;53638;51.062;5.804;2022-12-07T07:08:44;5.40;118.99
66726;HTU21D;53638;51.062;5.804;2022-12-07T07:11:10;5.37;118.99
66726;HTU21D;53638;51.062;5.804;2022-12-07T07:13:36;5.34;118.99
66726;HTU21D;53638;51.062;5.804;2022-12-07T07:16:02;5.31;118.99
66726;HTU21D;53638;51.062;5.804;2022-12-07T07:18:29;5.28;118.99
66726;HTU21D;53638;51.062;5.804;2022-12-07T07:20:55;5.31;118.99
66726;HTU21D;53638;51.062;5.804;2022-12-07T07:23:21;5.35;118.99
66726;HTU21D;53638;51.062;5.804;2022-12-07T07:25:47;5.36;118.99
66726;HTU21D;53638;51.062;5.804;2022-12-07T07:28:14;5.37;118.99
66726;HTU21D;53638;51.062;5.804;2022-12-07T07:30:40;5.36;118.99
66726;HTU21D;53638;51.062;5.804;2022-12-07T07:33:06;5.32;118.99
66726;HTU21D;53638;51.062;5.804;2022-12-07T07:35:34;5.33;118.99
66726;HTU21D;53638;51.062;5.804;2022-12-07T07:38:01;5.27;118.99
66726;HTU21D;53638;51.062;5.804;2022-12-07T07:40:28;5.22;118.99
66726;HTU21D;53638;51.062;5.804;2022-12-07T07:42:56;5.22;118.99
66726;HTU21D;53638;51.062;5.804;2022-12-07T07:45:24;5.21;118.99
66726;HTU21D;53638;51.062;5.804;2022-12-07T07:47:51;5.21;118.99
66726;HTU21D;53638;51.062;5.804;2022-12-07T07:50:17;5.22;118.99
66726;HTU21D;53638;51.062;5.804;2022-12-07T07:52:44;5.22;118.99
66726;HTU21D;53638;51.062;5.804;2022-12-07T07:55:10;5.21;118.99
66726;HTU21D;53638;51.062;5.804;2022-12-07T07:57:38;5.18;118.99
66726;HTU21D;53638;51.062;5.804;2022-12-07T08:00:08;5.15;118.99
66726;HTU21D;53638;51.062;5.804;2022-12-07T08:02:39;5.18;118.99
66726;HTU21D;53638;51.062;5.804;2022-12-07T08:05:05;5.19;118.99
66726;HTU21D;53638;51.062;5.804;2022-12-07T08:07:31;5.16;118.99
66726;HTU21D;53638;51.062;5.804;2022-12-07T08:09:57;5.13;118.99
66726;HTU21D;53638;51.062;5.804;2022-12-07T08:12:23;5.09;118.99
66726;HTU21D;53638;51.062;5.804;2022-12-07T08:14:49;5.07;118.99
66726;HTU21D;53638;51.062;5.804;2022-12-07T08:17:15;5.05;118.99
66726;HTU21D;53638;51.062;5.804;2022-12-07T08:19:40;5.02;118.99
66726;HTU21D;53638;51.062;5.804;2022-12-07T08:22:06;4.98;118.99
66726;HTU21D;53638;51.062;5.804;2022-12-07T08:24:34;4.95;118.99
66726;HTU21D;53638;51.062;5.804;2022-12-07T08:27:00;4.90;118.99
66726;HTU21D;53638;51.062;5.804;2022-12-07T08:29:26;4.91;118.99
66726;HTU21D;53638;51.062;5.804;2022-12-07T08:31:52;4.91;118.99
66726;HTU21D;53638;51.062;5.804;2022-12-07T08:34:18;4.95;118.99
66726;HTU21D;53638;51.062;5.804;2022-12-07T08:36:44;5.09;118.99
66726;HTU21D;53638;51.062;5.804;2022-12-07T08:39:10;5.19;118.99
66726;HTU21D;53638;51.062;5.804;2022-12-07T08:41:36;5.30;118.99
66726;HTU21D;53638;51.062;5.804;2022-12-07T08:44:02;5.36;118.99
66726;HTU21D;53638;51.062;5.804;2022-12-07T08:46:38;5.43;118.99
66726;HTU21D;53638;51.062;5.804;2022-12-07T08:49:16;5.42;118.99
66726;HTU21D;53638;51.062;5.804;2022-12-07T08:51:44;5.48;118.99
66726;HTU21D;53638;51.062;5.804;2022-12-07T08:54:14;5.42;118.99
66726;HTU21D;53638;51.062;5.804;2022-12-07T08:56:41;5.38;118.99
66726;HTU21D;53638;51.062;5.804;2022-12-07T08:59:08;5.37;118.99
66726;HTU21D;53638;51.062;5.804;2022-12-07T09:01:34;5.45;118.99
66726;HTU21D;53638;51.062;5.804;2022-12-07T09:04:00;5.48;118.99
66726;HTU21D;53638;51.062;5.804;2022-12-07T09:06:27;5.46;118.99
66726;HTU21D;53638;51.062;5.804;2022-12-07T09:08:58;5.51;118.99
66726;HTU21D;53638;51.062;5.804;2022-12-07T09:11:26;5.56;118.99
66726;HTU21D;53638;51.062;5.804;2022-12-07T09:13:52;5.66;118.99
66726;HTU21D;53638;51.062;5.804;2022-12-07T09:16:18;5.67;118.99
66726;HTU21D;53638;51.062;5.804;2022-12-07T09:18:43;5.64;118.99
66726;HTU21D;53638;51.062;5.804;2022-12-07T09:21:09;5.64;118.99
66726;HTU21D;53638;51.062;5.804;2022-12-07T09:23:35;5.65;118.99
66726;HTU21D;53638;51.062;5.804;2022-12-07T09:26:03;5.65;118.99
66726;HTU21D;53638;51.062;5.804;2022-12-07T09:28:31;5.71;118.99
66726;HTU21D;53638;51.062;5.804;2022-12-07T09:30:57;5.74;118.99
66726;HTU21D;53638;51.062;5.804;2022-12-07T09:33:23;5.75;118.99
66726;HTU21D;53638;51.062;5.804;2022-12-07T09:35:50;5.83;118.99
66726;HTU21D;53638;51.062;5.804;2022-12-07T09:38:18;5.84;118.99
66726;HTU21D;53638;51.062;5.804;2022-12-07T09:40:44;5.90;118.99
66726;HTU21D;53638;51.062;5.804;2022-12-07T09:43:17;5.97;118.99
66726;HTU21D;53638;51.062;5.804;2022-12-07T09:45:45;6.01;118.99
66726;HTU21D;53638;51.062;5.804;2022-12-07T09:48:18;6.11;118.99
66726;HTU21D;53638;51.062;5.804;2022-12-07T09:50:47;6.15;118.99
66726;HTU21D;53638;51.062;5.804;2022-12-07T09:53:24;6.23;118.99
66726;HTU21D;53638;51.062;5.804;2022-12-07T09:55:51;6.25;118.99
66726;HTU21D;53638;51.062;5.804;2022-12-07T09:58:23;6.31;118.99
66726;HTU21D;53638;51.062;5.804;2022-12-07T10:00:55;6.31;118.99
66726;HTU21D;53638;51.062;5.804;2022-12-07T10:03:22;6.41;118.99
66726;HTU21D;53638;51.062;5.804;2022-12-07T10:05:51;7.38;118.99
66726;HTU21D;53638;51.062;5.804;2022-12-07T10:08:17;8.52;118.99
66726;HTU21D;53638;51.062;5.804;2022-12-07T10:10:44;9.38;118.99
66726;HTU21D;53638;51.062;5.804;2022-12-07T10:13:13;10.03;118.99
66726;HTU21D;53638;51.062;5.804;2022-12-07T10:23:29;10.88;118.99
66726;HTU21D;53638;51.062;5.804;2022-12-07T10:25:55;10.64;118.99
66726;HTU21D;53638;51.062;5.804;2022-12-07T10:28:22;10.18;118.99
66726;HTU21D;53638;51.062;5.804;2022-12-07T10:30:57;10.14;118.99
66726;HTU21D;53638;51.062;5.804;2022-12-07T10:33:37;10.08;118.99
66726;HTU21D;53638;51.062;5.804;2022-12-07T10:36:25;9.52;118.99
66726;HTU21D;53638;51.062;5.804;2022-12-07T10:38:58;9.09;118.99
66726;HTU21D;53638;51.062;5.804;2022-12-07T10:41:25;8.85;118.99
66726;HTU21D;53638;51.062;5.804;2022-12-07T10:43:54;8.70;118.99
66726;HTU21D;53638;51.062;5.804;2022-12-07T10:49:12;8.38;118.99
66726;HTU21D;53638;51.062;5.804;2022-12-07T10:51:45;8.26;118.99
66726;HTU21D;53638;51.062;5.804;2022-12-07T10:56:59;8.20;118.99
66726;HTU21D;53638;51.062;5.804;2022-12-07T10:59:52;8.31;118.99
66726;HTU21D;53638;51.062;5.804;2022-12-07T11:05:06;8.93;118.99
66726;HTU21D;53638;51.062;5.804;2022-12-07T11:07:42;8.66;118.99
66726;HTU21D;53638;51.062;5.804;2022-12-07T11:13:15;8.14;118.99
66726;HTU21D;53638;51.062;5.804;2022-12-07T11:16:16;8.00;118.99
66726;HTU21D;53638;51.062;5.804;2022-12-07T11:18:50;8.81;118.99
66726;HTU21D;53638;51.062;5.804;2022-12-07T11:24:16;10.98;118.99
66726;HTU21D;53638;51.062;5.804;2022-12-07T11:27:00;10.11;118.99
66726;HTU21D;53638;51.062;5.804;2022-12-07T11:29:55;9.44;118.99
66726;HTU21D;53638;51.062;5.804;2022-12-07T11:37:40;8.48;118.99
66726;HTU21D;53638;51.062;5.804;2022-12-07T11:40:27;8.30;118.99
66726;HTU21D;53638;51.062;5.804;2022-12-07T11:43:02;8.30;118.99
66726;HTU21D;53638;51.062;5.804;2022-12-07T11:45:33;8.15;118.99
66726;HTU21D;53638;51.062;5.804;2022-12-07T11:48:03;8.12;118.99
66726;HTU21D;53638;51.062;5.804;2022-12-07T11:50:41;8.07;118.99
66726;HTU21D;53638;51.062;5.804;2022-12-07T11:58:35;8.02;118.99
66726;HTU21D;53638;51.062;5.804;2022-12-07T12:03:35;7.84;118.99
66726;HTU21D;53638;51.062;5.804;2022-12-07T12:06:02;7.91;118.99
66726;HTU21D;53638;51.062;5.804;2022-12-07T12:08:36;7.90;118.99
66726;HTU21D;53638;51.062;5.804;2022-12-07T12:17:03;8.32;118.99
66726;HTU21D;53638;51.062;5.804;2022-12-07T12:19:32;8.39;118.99
66726;HTU21D;53638;51.062;5.804;2022-12-07T12:22:12;8.47;118.99
66726;HTU21D;53638;51.062;5.804;2022-12-07T12:24:41;8.38;118.99
66726;HTU21D;53638;51.062;5.804;2022-12-07T12:27:22;8.38;118.99
66726;HTU21D;53638;51.062;5.804;2022-12-07T12:29:54;8.41;118.99
66726;HTU21D;53638;51.062;5.804;2022-12-07T12:32:28;8.41;118.99
66726;HTU21D;53638;51.062;5.804;2022-12-07T12:35:02;8.43;118.99
66726;HTU21D;53638;51.062;5.804;2022-12-07T12:42:49;8.23;118.99
66726;HTU21D;53638;51.062;5.804;2022-12-07T12:47:56;8.18;118.99
66726;HTU21D;53638;51.062;5.804;2022-12-07T12:50:26;8.11;118.99
66726;HTU21D;53638;51.062;5.804;2022-12-07T12:52:57;8.03;118.99
66726;HTU21D;53638;51.062;5.804;2022-12-07T12:55:48;7.98;118.99
66726;HTU21D;53638;51.062;5.804;2022-12-07T13:00:45;7.94;118.99
66726;HTU21D;53638;51.062;5.804;2022-12-07T13:03:28;7.93;118.99
66726;HTU21D;53638;51.062;5.804;2022-12-07T13:06:17;7.90;118.99
66726;HTU21D;53638;51.062;5.804;2022-12-07T13:08:45;7.96;118.99
66726;HTU21D;53638;51.062;5.804;2022-12-07T13:11:25;7.82;118.99
66726;HTU21D;53638;51.062;5.804;2022-12-07T13:16:58;7.72;118.99
66726;HTU21D;53638;51.062;5.804;2022-12-07T13:22:34;7.65;118.99
66726;HTU21D;53638;51.062;5.804;2022-12-07T13:27:40;7.72;118.99
66726;HTU21D;53638;51.062;5.804;2022-12-07T13:30:15;7.71;118.99
66726;HTU21D;53638;51.062;5.804;2022-12-07T13:32:42;7.75;118.99
66726;HTU21D;53638;51.062;5.804;2022-12-07T13:37:54;7.69;118.99
66726;HTU21D;53638;51.062;5.804;2022-12-07T13:40:22;7.67;118.99
66726;HTU21D;53638;51.062;5.804;2022-12-07T13:42:48;7.52;118.99
66726;HTU21D;53638;51.062;5.804;2022-12-07T13:45:28;7.54;118.99
66726;HTU21D;53638;51.062;5.804;2022-12-07T13:48:30;7.48;118.99
66726;HTU21D;53638;51.062;5.804;2022-12-07T13:51:00;7.48;118.99
66726;HTU21D;53638;51.062;5.804;2022-12-07T13:53:27;7.49;118.99
66726;HTU21D;53638;51.062;5.804;2022-12-07T13:55:59;7.47;118.99
66726;HTU21D;53638;51.062;5.804;2022-12-07T13:58:30;7.50;118.99
66726;HTU21D;53638;51.062;5.804;2022-12-07T14:00:57;7.44;118.99
66726;HTU21D;53638;51.062;5.804;2022-12-07T14:03:28;7.48;118.99
66726;HTU21D;53638;51.062;5.804;2022-12-07T14:06:13;7.46;118.99
66726;HTU21D;53638;51.062;5.804;2022-12-07T14:08:40;7.49;118.99
66726;HTU21D;53638;51.062;5.804;2022-12-07T14:11:15;7.52;118.99
66726;HTU21D;53638;51.062;5.804;2022-12-07T14:18:43;7.47;118.99
66726;HTU21D;53638;51.062;5.804;2022-12-07T14:23:36;7.44;118.99
66726;HTU21D;53638;51.062;5.804;2022-12-07T14:26:12;7.40;118.99
66726;HTU21D;53638;51.062;5.804;2022-12-07T14:28:41;7.34;118.99
66726;HTU21D;53638;51.062;5.804;2022-12-07T14:31:12;7.27;118.99
66726;HTU21D;53638;51.062;5.804;2022-12-07T14:33:40;7.25;118.99
66726;HTU21D;53638;51.062;5.804;2022-12-07T14:36:13;7.22;118.99
66726;HTU21D;53638;51.062;5.804;2022-12-07T14:38:39;7.18;118.99
66726;HTU21D;53638;51.062;5.804;2022-12-07T14:41:14;7.15;118.99
66726;HTU21D;53638;51.062;5.804;2022-12-07T14:44:00;7.17;118.99
66726;HTU21D;53638;51.062;5.804;2022-12-07T14:46:26;7.15;118.99
66726;HTU21D;53638;51.062;5.804;2022-12-07T14:48:51;7.19;118.99
66726;HTU21D;53638;51.062;5.804;2022-12-07T14:51:17;7.17;118.99
66726;HTU21D;53638;51.062;5.804;2022-12-07T14:53:49;7.26;118.99
66726;HTU21D;53638;51.062;5.804;2022-12-07T14:56:15;7.20;118.99
66726;HTU21D;53638;51.062;5.804;2022-12-07T14:58:41;7.08;118.99
66726;HTU21D;53638;51.062;5.804;2022-12-07T15:01:07;6.97;118.99
66726;HTU21D;53638;51.062;5.804;2022-12-07T15:03:34;6.86;118.99
66726;HTU21D;53638;51.062;5.804;2022-12-07T15:06:00;6.76;118.99
66726;HTU21D;53638;51.062;5.804;2022-12-07T15:08:26;6.73;118.99
66726;HTU21D;53638;51.062;5.804;2022-12-07T15:10:52;6.69;118.99
66726;HTU21D;53638;51.062;5.804;2022-12-07T15:13:18;6.58;118.99
66726;HTU21D;53638;51.062;5.804;2022-12-07T15:16:19;6.59;118.99
66726;HTU21D;53638;51.062;5.804;2022-12-07T15:18:45;6.54;118.99
66726;HTU21D;53638;51.062;5.804;2022-12-07T15:21:15;6.53;118.99
66726;HTU21D;53638;51.062;5.804;2022-12-07T15:23:41;6.52;118.99
66726;HTU21D;53638;51.062;5.804;2022-12-07T15:26:09;6.50;118.99
66726;HTU21D;53638;51.062;5.804;2022-12-07T15:28:36;6.55;118.99
66726;HTU21D;53638;51.062;5.804;2022-12-07T15:31:02;6.54;118.99
66726;HTU21D;53638;51.062;5.804;2022-12-07T15:33:28;6.50;118.99
66726;HTU21D;53638;51.062;5.804;2022-12-07T15:35:54;6.44;118.99
66726;HTU21D;53638;51.062;5.804;2022-12-07T15:38:20;6.40;118.99
66726;HTU21D;53638;51.062;5.804;2022-12-07T15:40:47;6.36;118.99
66726;HTU21D;53638;51.062;5.804;2022-12-07T15:43:13;6.31;118.99
66726;HTU21D;53638;51.062;5.804;2022-12-07T15:45:59;6.24;118.99
66726;HTU21D;53638;51.062;5.804;2022-12-07T15:48:25;6.16;118.99
66726;HTU21D;53638;51.062;5.804;2022-12-07T15:50:51;6.08;118.99
66726;HTU21D;53638;51.062;5.804;2022-12-07T15:53:17;5.96;118.99
66726;HTU21D;53638;51.062;5.804;2022-12-07T15:55:43;5.86;118.99
66726;HTU21D;53638;51.062;5.804;2022-12-07T15:58:09;5.85;118.99
66726;HTU21D;53638;51.062;5.804;2022-12-07T16:00:34;5.83;118.99
66726;HTU21D;53638;51.062;5.804;2022-12-07T16:03:00;5.83;118.99
66726;HTU21D;53638;51.062;5.804;2022-12-07T16:05:26;5.94;118.99
66726;HTU21D;53638;51.062;5.804;2022-12-07T16:07:52;6.00;118.99
66726;HTU21D;53638;51.062;5.804;2022-12-07T16:10:18;6.04;118.99
66726;HTU21D;53638;51.062;5.804;2022-12-07T16:12:44;6.08;118.99
66726;HTU21D;53638;51.062;5.804;2022-12-07T16:15:10;6.09;118.99
66726;HTU21D;53638;51.062;5.804;2022-12-07T16:17:36;6.08;118.99
66726;HTU21D;53638;51.062;5.804;2022-12-07T16:20:03;6.10;118.99
66726;HTU21D;53638;51.062;5.804;2022-12-07T16:22:29;6.10;118.99
66726;HTU21D;53638;51.062;5.804;2022-12-07T16:24:55;6.09;118.99
66726;HTU21D;53638;51.062;5.804;2022-12-07T16:27:21;6.08;118.99
66726;HTU21D;53638;51.062;5.804;2022-12-07T16:29:47;6.06;118.99
66726;HTU21D;53638;51.062;5.804;2022-12-07T16:32:13;6.09;118.99
66726;HTU21D;53638;51.062;5.804;2022-12-07T16:34:39;6.07;118.99
66726;HTU21D;53638;51.062;5.804;2022-12-07T16:37:05;6.02;118.99
66726;HTU21D;53638;51.062;5.804;2022-12-07T16:39:32;6.01;118.99
66726;HTU21D;53638;51.062;5.804;2022-12-07T16:41:58;6.09;118.99
66726;HTU21D;53638;51.062;5.804;2022-12-07T16:44:24;6.07;118.99
66726;HTU21D;53638;51.062;5.804;2022-12-07T16:46:50;6.01;118.99
66726;HTU21D;53638;51.062;5.804;2022-12-07T16:49:16;6.07;118.99
66726;HTU21D;53638;51.062;5.804;2022-12-07T16:51:43;6.06;118.99
66726;HTU21D;53638;51.062;5.804;2022-12-07T16:54:12;5.97;118.99
66726;HTU21D;53638;51.062;5.804;2022-12-07T16:56:38;5.92;118.99
66726;HTU21D;53638;51.062;5.804;2022-12-07T16:59:04;5.76;118.99
66726;HTU21D;53638;51.062;5.804;2022-12-07T17:01:30;5.79;118.99
66726;HTU21D;53638;51.062;5.804;2022-12-07T17:03:57;5.76;118.99
66726;HTU21D;53638;51.062;5.804;2022-12-07T17:06:25;5.76;118.99